Time;durP1;ratioP1;P1;durP2;ratioP2;P2;SDS_P1;SDS_P2;PMS_P1;PMS_P2;Temp;Humidity;BMP_temperature;BMP_pressure;BME280_temperature;BME280_humidity;BME280_pressure;Samples;Min_cycle;Max_cycle;Signal;HPM_P1;HPM_P2
2023/07/13 00:01:35;;;;;;;10.32;3.72;;;31.20;37.40;;;;;;6246923;23;20000;-77
2023/07/13 00:04:01;;;;;;;6.90;3.55;;;31.20;37.50;;;;;;6246667;23;20508;-77
2023/07/13 00:06:32;;;;;;;17.35;3.65;;;31.20;37.60;;;;;;6247564;23;20027;-76
2023/07/13 00:08:59;;;;;;;9.77;3.83;;;31.20;37.60;;;;;;6247089;23;20015;-78
2023/07/13 00:11:25;;;;;;;15.80;4.10;;;31.20;37.50;;;;;;6246720;23;20004;-76
2023/07/13 00:13:51;;;;;;;10.80;3.85;;;31.20;37.80;;;;;;6246886;23;20433;-77
2023/07/13 00:16:18;;;;;;;10.63;3.33;;;31.20;37.70;;;;;;6246772;23;20435;-77
2023/07/13 00:18:44;;;;;;;12.43;3.15;;;31.20;37.50;;;;;;6219538;23;20407;-77
2023/07/13 00:21:11;;;;;;;9.48;3.63;;;31.20;37.30;;;;;;6246526;23;20334;-75
2023/07/13 00:23:40;;;;;;;8.35;3.50;;;31.20;37.10;;;;;;6246576;23;20398;-77
2023/07/13 00:26:08;;;;;;;11.60;3.60;;;31.30;37.00;;;;;;6219761;23;20007;-75
2023/07/13 00:28:34;;;;;;;10.35;3.72;;;31.30;36.90;;;;;;6246464;23;20487;-75
2023/07/13 00:31:00;;;;;;;8.82;3.10;;;31.30;36.90;;;;;;6246667;23;20472;-75
2023/07/13 00:33:28;;;;;;;11.40;3.72;;;31.20;36.90;;;;;;6246288;23;19996;-77
2023/07/13 00:35:54;;;;;;;9.80;3.53;;;31.20;36.90;;;;;;6246235;23;20055;-76
2023/07/13 00:38:20;;;;;;;5.45;2.80;;;31.20;36.90;;;;;;6246535;23;19996;-76
2023/07/13 00:40:46;;;;;;;10.38;3.33;;;31.20;36.90;;;;;;6246547;23;20493;-76
2023/07/13 00:43:17;;;;;;;11.07;3.42;;;31.20;36.90;;;;;;6246603;23;19996;-76
2023/07/13 00:45:43;;;;;;;10.95;3.63;;;31.20;37.60;;;;;;6246880;23;20031;-76
2023/07/13 00:48:10;;;;;;;9.20;2.90;;;31.20;36.90;;;;;;6246588;23;20422;-76
2023/07/13 00:50:37;;;;;;;9.95;3.58;;;31.20;36.80;;;;;;6219516;23;20008;-77
2023/07/13 00:53:03;;;;;;;12.40;3.60;;;31.20;36.80;;;;;;6246550;23;20026;-76
2023/07/13 00:55:29;;;;;;;8.10;3.50;;;31.20;37.00;;;;;;6246439;23;20342;-76
2023/07/13 00:57:55;;;;;;;6.45;3.08;;;31.20;37.10;;;;;;6246011;23;20004;-75
2023/07/13 01:00:23;;;;;;;8.90;3.75;;;31.20;36.90;;;;;;6246316;23;20004;-76
2023/07/13 01:02:49;;;;;;;9.68;2.80;;;31.20;37.00;;;;;;6246431;23;20004;-76
2023/07/13 01:05:21;;;;;;;12.40;3.00;;;31.20;36.80;;;;;;6246377;23;20310;-75
2023/07/13 01:07:49;;;;;;;8.73;3.67;;;31.20;37.00;;;;;;6245782;23;20495;-77
2023/07/13 01:10:15;;;;;;;10.35;3.58;;;31.20;36.90;;;;;;6246055;23;20148;-76
2023/07/13 01:12:41;;;;;;;10.48;3.13;;;31.20;37.00;;;;;;6245567;23;20361;-77
2023/07/13 01:15:32;;;;;;;8.05;3.60;;;31.20;37.00;;;;;;6245744;23;20074;-77
2023/07/13 01:17:58;;;;;;;9.75;3.33;;;31.20;37.60;;;;;;6245541;23;20000;-76
2023/07/13 01:20:24;;;;;;;8.30;2.70;;;31.20;37.20;;;;;;6245710;23;20012;-76
2023/07/13 01:22:50;;;;;;;8.25;3.40;;;31.20;37.10;;;;;;6245851;23;20011;-76
2023/07/13 01:25:16;;;;;;;11.52;2.88;;;31.20;37.30;;;;;;6245430;23;20012;-77
2023/07/13 01:27:42;;;;;;;6.35;3.10;;;31.20;37.30;;;;;;6245375;23;19997;-76
2023/07/13 01:30:09;;;;;;;10.75;3.30;;;31.20;37.40;;;;;;6245239;23;20110;-75
2023/07/13 01:32:36;;;;;;;7.93;3.42;;;31.20;37.60;;;;;;6245472;23;20400;-76
2023/07/13 01:35:03;;;;;;;9.75;4.05;;;31.20;37.70;;;;;;6245270;23;20012;-76
2023/07/13 01:37:33;;;;;;;7.38;3.35;;;31.10;37.50;;;;;;6245384;23;20007;-75
2023/07/13 01:39:59;;;;;;;9.45;3.42;;;31.10;37.40;;;;;;6245363;23;20055;-77
2023/07/13 01:42:24;;;;;;;9.55;3.53;;;31.10;37.60;;;;;;6245446;23;20004;-76
2023/07/13 01:44:50;;;;;;;8.55;3.13;;;31.10;37.40;;;;;;6245354;23;20007;-76
2023/07/13 01:47:16;;;;;;;7.95;3.40;;;31.20;37.60;;;;;;6245459;23;19997;-74
2023/07/13 01:49:41;;;;;;;7.45;3.00;;;31.20;37.90;;;;;;6245802;23;20414;-75
2023/07/13 01:52:07;;;;;;;7.38;3.35;;;31.10;37.70;;;;;;6245409;23;20031;-76
2023/07/13 01:54:33;;;;;;;9.48;3.05;;;31.10;37.90;;;;;;6245273;23;20038;-76
2023/07/13 01:56:59;;;;;;;8.30;3.03;;;31.10;37.90;;;;;;6245357;23;20386;-75
2023/07/13 01:59:25;;;;;;;7.82;2.90;;;31.20;38.00;;;;;;6245047;23;20330;-76
2023/07/13 02:01:51;;;;;;;8.77;3.17;;;31.20;38.00;;;;;;6245205;23;20007;-75
2023/07/13 02:04:17;;;;;;;6.18;2.90;;;31.20;38.00;;;;;;6245156;23;20019;-77
2023/07/13 02:06:42;;;;;;;10.88;3.55;;;31.20;38.90;;;;;;6245227;23;20038;-76
2023/07/13 02:09:08;;;;;;;11.98;3.33;;;31.20;38.20;;;;;;6244377;23;20004;-77
2023/07/13 02:11:34;;;;;;;6.03;3.10;;;31.20;38.20;;;;;;6245145;23;19996;-75
2023/07/13 02:14:01;;;;;;;6.93;3.08;;;31.20;38.10;;;;;;6217871;23;20012;-76
2023/07/13 02:16:27;;;;;;;9.48;3.40;;;31.20;38.30;;;;;;6245057;23;20311;-77
2023/07/13 02:18:55;;;;;;;9.65;3.25;;;31.10;38.50;;;;;;6245123;23;20000;-75
2023/07/13 02:21:21;;;;;;;7.28;3.30;;;31.20;38.50;;;;;;6245078;23;20062;-76
2023/07/13 02:23:47;;;;;;;8.38;2.80;;;31.10;38.30;;;;;;6245150;23;20514;-76
2023/07/13 02:26:13;;;;;;;8.77;3.35;;;31.10;38.70;;;;;;6245277;23;20035;-75
2023/07/13 02:28:38;;;;;;;7.93;3.30;;;31.20;38.80;;;;;;6245513;23;20004;-76
2023/07/13 02:31:06;;;;;;;6.30;3.08;;;31.10;38.50;;;;;;6245325;23;20371;-77
2023/07/13 02:33:32;;;;;;;6.32;2.90;;;31.10;38.80;;;;;;6244958;23;20083;-76
2023/07/13 02:35:58;;;;;;;10.98;3.60;;;31.10;38.90;;;;;;6245098;23;20500;-76
2023/07/13 02:38:23;;;;;;;6.50;3.17;;;31.10;38.90;;;;;;6245153;23;20006;-76
2023/07/13 02:40:49;;;;;;;6.80;3.40;;;31.10;38.90;;;;;;6244909;23;20026;-76
2023/07/13 02:43:15;;;;;;;5.60;3.10;;;31.10;39.00;;;;;;6245003;23;20008;-77
2023/07/13 02:45:44;;;;;;;8.13;2.80;;;31.10;39.00;;;;;;6217591;23;20008;-76
2023/07/13 02:48:10;;;;;;;6.85;3.20;;;31.10;39.00;;;;;;6244817;23;20082;-76
2023/07/13 02:50:35;;;;;;;6.22;3.22;;;31.10;39.00;;;;;;6244554;23;20032;-76
2023/07/13 02:53:01;;;;;;;6.40;3.10;;;31.00;38.90;;;;;;6244838;23;19996;-76
2023/07/13 02:55:27;;;;;;;6.15;3.38;;;31.00;38.90;;;;;;6244823;23;20012;-77
2023/07/13 02:57:54;;;;;;;10.18;3.45;;;31.00;39.00;;;;;;6244436;23;20445;-77
2023/07/13 03:00:19;;;;;;;8.57;3.70;;;31.00;39.10;;;;;;6217441;23;20012;-76
2023/07/13 03:02:45;;;;;;;6.93;3.33;;;31.00;39.10;;;;;;6244935;23;20075;-77
2023/07/13 03:05:12;;;;;;;8.35;3.42;;;31.00;39.20;;;;;;6244665;23;20416;-77
2023/07/13 03:07:38;;;;;;;9.02;3.30;;;31.00;39.10;;;;;;6244384;23;20004;-74
2023/07/13 03:10:06;;;;;;;11.38;3.45;;;31.00;39.10;;;;;;6244636;23;20000;-75
2023/07/13 03:12:32;;;;;;;10.18;3.47;;;30.90;39.50;;;;;;6244434;23;20000;-75
2023/07/13 03:14:58;;;;;;;6.25;2.90;;;30.90;39.50;;;;;;6244292;23;20019;-75
2023/07/13 03:17:24;;;;;;;9.05;3.58;;;30.90;39.70;;;;;;6244890;23;20426;-76
2023/07/13 03:19:50;;;;;;;7.57;4.03;;;30.90;40.20;;;;;;6244365;23;20000;-77
2023/07/13 03:22:18;;;;;;;9.30;3.53;;;30.80;40.80;;;;;;6244455;23;20023;-76
2023/07/13 03:24:44;;;;;;;12.90;4.13;;;30.70;41.60;;;;;;6244810;23;20374;-75
2023/07/13 03:27:09;;;;;;;10.93;4.47;;;30.70;42.10;;;;;;6218214;23;20000;-77
2023/07/13 03:29:35;;;;;;;6.90;3.83;;;30.60;42.60;;;;;;6219963;23;20008;-76
2023/07/13 03:32:01;;;;;;;9.30;4.25;;;30.50;43.10;;;;;;6245019;23;20453;-75
2023/07/13 03:34:27;;;;;;;8.38;3.95;;;30.40;43.40;;;;;;6244520;23;20012;-76
2023/07/13 03:36:56;;;;;;;9.80;4.00;;;30.30;43.80;;;;;;6244744;23;20004;-75
2023/07/13 03:39:22;;;;;;;9.85;4.53;;;30.20;44.00;;;;;;6244438;23;20007;-76
2023/07/13 03:41:48;;;;;;;12.05;4.38;;;30.10;44.20;;;;;;6244406;23;20434;-77
2023/07/13 03:44:15;;;;;;;10.50;4.00;;;30.00;45.30;;;;;;6244472;23;19993;-76
2023/07/13 03:46:41;;;;;;;8.35;4.03;;;30.00;44.70;;;;;;6244642;23;20071;-76
2023/07/13 03:49:06;;;;;;;10.60;4.20;;;29.90;44.60;;;;;;6244498;23;20032;-76
2023/07/13 03:51:32;;;;;;;9.60;3.67;;;29.90;44.50;;;;;;6244562;23;20001;-77
2023/07/13 03:53:58;;;;;;;9.27;3.65;;;29.90;44.60;;;;;;6217571;23;20069;-76
2023/07/13 03:56:23;;;;;;;9.65;3.78;;;29.90;44.60;;;;;;6244362;23;20099;-77
2023/07/13 03:58:50;;;;;;;10.45;4.07;;;29.90;44.60;;;;;;6244743;23;20068;-75
2023/07/13 04:01:18;;;;;;;11.63;4.32;;;29.90;44.80;;;;;;6244214;23;20003;-77
2023/07/13 04:03:46;;;;;;;9.65;4.60;;;29.90;45.20;;;;;;6244534;23;19996;-75
2023/07/13 04:06:24;;;;;;;10.85;4.25;;;29.80;45.30;;;;;;6244674;23;20000;-76
2023/07/13 04:08:53;;;;;;;10.98;4.40;;;29.80;45.40;;;;;;6244736;23;20005;-76
2023/07/13 04:11:20;;;;;;;8.43;4.20;;;29.90;45.50;;;;;;6244095;23;20008;-77
2023/07/13 04:13:46;;;;;;;7.70;4.03;;;29.90;44.90;;;;;;6245032;23;20004;-77
2023/07/13 04:16:13;;;;;;;15.63;4.22;;;30.00;44.90;;;;;;6244238;23;20460;-77
2023/07/13 04:18:39;;;;;;;11.13;4.30;;;30.00;45.00;;;;;;6244566;23;20000;-77
2023/07/13 04:21:04;;;;;;;7.53;3.58;;;30.00;44.70;;;;;;6217690;23;20095;-77
2023/07/13 04:23:30;;;;;;;11.95;4.22;;;30.10;44.30;;;;;;6244413;23;20059;-76
2023/07/13 04:25:56;;;;;;;11.48;4.28;;;30.10;44.20;;;;;;6244630;23;20075;-76
2023/07/13 04:28:24;;;;;;;8.10;3.70;;;30.10;43.50;;;;;;6244877;23;20476;-75
2023/07/13 04:30:50;;;;;;;10.20;4.10;;;30.20;43.00;;;;;;6244222;23;20070;-75
2023/07/13 04:33:22;;;;;;;10.02;4.20;;;30.20;42.70;;;;;;6246569;23;20012;-76
2023/07/13 04:35:56;;;;;;;11.27;4.05;;;30.30;42.40;;;;;;6246485;23;20020;-76
2023/07/13 04:38:24;;;;;;;9.68;4.05;;;30.30;42.00;;;;;;6246146;23;20004;-77
2023/07/13 04:40:50;;;;;;;8.65;3.75;;;30.40;41.30;;;;;;6246291;23;20450;-77
2023/07/13 04:43:16;;;;;;;6.63;3.25;;;30.50;41.10;;;;;;6246069;23;20434;-78
2023/07/13 04:45:42;;;;;;;13.68;3.70;;;30.60;40.70;;;;;;6246106;23;20028;-76
2023/07/13 04:48:08;;;;;;;7.13;3.08;;;30.70;40.30;;;;;;6246047;23;20004;-77
2023/07/13 04:50:37;;;;;;;7.55;3.50;;;30.70;39.80;;;;;;6245939;23;20000;-77
2023/07/13 04:53:03;;;;;;;9.45;4.00;;;30.80;39.40;;;;;;6246160;23;20004;-76
2023/07/13 04:55:30;;;;;;;16.40;8.50;;;30.90;39.50;;;;;;6245794;23;20066;-76
2023/07/13 04:57:58;;;;;;;10.15;4.03;;;30.90;39.10;;;;;;6246283;23;20068;-76
2023/07/13 05:00:24;;;;;;;10.45;3.72;;;30.90;39.30;;;;;;6245903;23;20007;-77
2023/07/13 05:02:51;;;;;;;7.63;3.67;;;31.00;39.30;;;;;;6246056;23;20008;-76
2023/07/13 05:05:16;;;;;;;11.40;3.72;;;31.00;39.10;;;;;;6245782;23;20107;-77
2023/07/13 05:07:42;;;;;;;9.80;3.75;;;31.10;39.10;;;;;;6246015;23;20056;-78
2023/07/13 05:10:09;;;;;;;9.82;4.15;;;31.20;38.90;;;;;;6245920;23;20441;-76
2023/07/13 05:12:35;;;;;;;8.38;3.95;;;31.20;39.10;;;;;;6245488;23;20001;-77
2023/07/13 05:15:01;;;;;;;13.13;4.68;;;31.30;39.30;;;;;;6245645;23;20497;-77
2023/07/13 05:17:27;;;;;;;12.57;4.32;;;31.30;39.90;;;;;;6245595;23;20326;-77
2023/07/13 05:19:53;;;;;;;8.93;3.67;;;31.30;39.60;;;;;;6245447;23;20000;-77
2023/07/13 05:22:18;;;;;;;8.75;4.03;;;31.50;39.90;;;;;;6245513;23;20468;-77
2023/07/13 05:24:44;;;;;;;12.68;4.30;;;31.50;39.60;;;;;;6245410;23;20060;-75
2023/07/13 05:27:10;;;;;;;13.77;4.85;;;31.60;39.80;;;;;;6245683;23;20000;-76
2023/07/13 05:29:36;;;;;;;11.63;4.45;;;31.80;39.80;;;;;;6245278;23;20011;-77
2023/07/13 05:32:03;;;;;;;10.52;4.10;;;32.00;39.60;;;;;;6245202;23;20026;-76
2023/07/13 05:34:29;;;;;;;10.60;3.90;;;32.30;39.30;;;;;;6245637;23;20103;-78
2023/07/13 05:36:55;;;;;;;12.23;3.80;;;32.60;38.50;;;;;;6245600;23;20453;-77
2023/07/13 05:39:21;;;;;;;10.75;3.97;;;32.80;37.90;;;;;;6245406;23;20485;-76
2023/07/13 05:41:46;;;;;;;15.52;4.13;;;33.00;37.50;;;;;;6245367;23;20078;-76
2023/07/13 05:44:12;;;;;;;12.18;3.38;;;33.30;37.10;;;;;;6245088;23;20373;-77
2023/07/13 05:46:38;;;;;;;10.07;3.70;;;33.50;36.20;;;;;;6245709;23;20016;-77
2023/07/13 05:49:04;;;;;;;12.13;5.47;;;33.80;35.50;;;;;;6246381;23;20003;-78
2023/07/13 05:51:30;;;;;;;15.73;7.47;;;33.90;34.80;;;;;;6245916;23;20016;-77
2023/07/13 05:53:56;;;;;;;10.15;4.03;;;34.10;34.50;;;;;;6245440;23;20000;-79
2023/07/13 05:56:21;;;;;;;13.77;3.95;;;34.30;34.30;;;;;;6245592;23;20367;-79
2023/07/13 05:58:48;;;;;;;9.35;4.15;;;34.40;34.00;;;;;;6245495;23;20007;-76
2023/07/13 06:01:15;;;;;;;14.02;4.18;;;34.60;33.40;;;;;;6245282;23;20007;-77
2023/07/13 06:03:41;;;;;;;8.45;4.00;;;34.90;33.50;;;;;;6245068;23;19996;-76
2023/07/13 06:06:09;;;;;;;10.38;4.38;;;35.00;33.00;;;;;;6218869;23;20050;-77
2023/07/13 06:08:36;;;;;;;11.48;4.05;;;35.10;32.90;;;;;;6245739;23;20012;-76
2023/07/13 06:11:04;;;;;;;10.52;4.10;;;35.30;32.90;;;;;;6245441;23;20023;-77
2023/07/13 06:13:30;;;;;;;14.68;4.53;;;35.40;32.60;;;;;;6218706;23;20369;-78
2023/07/13 06:15:55;;;;;;;15.82;3.80;;;35.60;32.60;;;;;;6245026;23;20008;-76
2023/07/13 06:18:21;;;;;;;13.43;4.35;;;35.70;32.20;;;;;;6245023;23;20091;-76
2023/07/13 06:20:47;;;;;;;12.18;3.83;;;35.80;32.00;;;;;;6245087;23;20008;-77
2023/07/13 06:23:12;;;;;;;10.18;3.63;;;35.90;31.80;;;;;;6244921;23;20000;-76
2023/07/13 06:25:39;;;;;;;11.98;3.90;;;36.00;31.70;;;;;;6245024;23;20480;-76
2023/07/13 06:28:05;;;;;;;12.68;4.05;;;36.00;31.60;;;;;;6245171;23;20035;-76
2023/07/13 06:30:31;;;;;;;10.60;3.88;;;36.10;31.80;;;;;;6218090;23;20020;-77
2023/07/13 06:32:57;;;;;;;11.52;4.75;;;36.30;31.70;;;;;;6245094;23;20381;-77
2023/07/13 06:35:23;;;;;;;13.57;4.53;;;36.40;31.70;;;;;;6244436;23;20008;-78
2023/07/13 06:37:48;;;;;;;12.70;4.32;;;36.50;31.40;;;;;;6245031;23;20006;-76
2023/07/13 06:40:14;;;;;;;13.40;4.00;;;36.50;31.40;;;;;;6245074;23;20050;-76
2023/07/13 06:42:40;;;;;;;10.93;3.50;;;36.60;31.30;;;;;;6244757;23;20426;-77
2023/07/13 06:45:06;;;;;;;8.30;3.70;;;36.70;31.30;;;;;;6217891;23;20393;-76
2023/07/13 06:47:32;;;;;;;9.07;3.55;;;36.60;31.20;;;;;;6244378;23;20426;-77
2023/07/13 06:49:57;;;;;;;12.68;3.90;;;36.60;31.30;;;;;;6244755;23;20046;-78
2023/07/13 06:52:23;;;;;;;15.98;3.88;;;36.50;31.20;;;;;;6217523;23;20059;-77
2023/07/13 06:54:49;;;;;;;10.65;3.40;;;36.50;31.30;;;;;;6217497;23;20107;-76
2023/07/13 06:57:14;;;;;;;10.15;3.90;;;36.50;31.40;;;;;;6244368;23;20003;-76
2023/07/13 06:59:40;;;;;;;13.55;4.03;;;36.40;31.50;;;;;;6243840;23;20008;-75
2023/07/13 07:02:07;;;;;;;15.73;4.28;;;36.40;31.60;;;;;;6244275;23;20406;-77
2023/07/13 07:04:33;;;;;;;15.60;4.30;;;36.40;31.70;;;;;;6244649;23;20095;-77
2023/07/13 07:06:58;;;;;;;12.43;3.70;;;36.40;32.00;;;;;;6244389;23;20028;-76
2023/07/13 07:09:24;;;;;;;9.57;3.40;;;36.50;31.80;;;;;;6244481;23;20010;-76
2023/07/13 07:11:50;;;;;;;20.08;4.25;;;36.50;31.80;;;;;;6244153;23;20080;-76
2023/07/13 07:14:15;;;;;;;11.40;3.67;;;36.50;32.00;;;;;;6244240;23;20000;-76
2023/07/13 07:16:41;;;;;;;12.57;3.90;;;36.60;32.10;;;;;;6217259;23;20004;-76
2023/07/13 07:19:07;;;;;;;11.88;4.22;;;36.70;31.80;;;;;;6244250;23;19996;-76
2023/07/13 07:21:32;;;;;;;11.25;3.90;;;36.70;31.80;;;;;;6244003;23;20448;-76
2023/07/13 07:23:59;;;;;;;12.70;4.00;;;36.70;32.00;;;;;;6244263;23;20004;-77
2023/07/13 07:26:25;;;;;;;13.52;4.22;;;36.70;31.80;;;;;;6217282;23;20005;-77
2023/07/13 07:28:51;;;;;;;13.85;4.00;;;36.70;31.90;;;;;;6244093;23;20463;-77
2023/07/13 07:31:16;;;;;;;10.35;3.90;;;36.70;31.90;;;;;;6243854;23;20452;-76
2023/07/13 07:33:42;;;;;;;9.63;3.30;;;36.80;32.00;;;;;;6217126;23;20082;-74
2023/07/13 07:36:08;;;;;;;11.85;3.92;;;36.80;32.20;;;;;;6244263;23;20544;-75
2023/07/13 07:38:34;;;;;;;9.93;3.53;;;36.80;32.10;;;;;;6244413;23;20000;-76
2023/07/13 07:41:04;;;;;;;18.60;4.32;;;36.70;32.20;;;;;;6244143;23;20430;-76
2023/07/13 07:43:30;;;;;;;8.95;3.45;;;36.70;32.20;;;;;;6243853;23;20397;-77
2023/07/13 07:45:55;;;;;;;9.70;3.97;;;36.80;32.80;;;;;;6217062;23;20016;-77
2023/07/13 07:48:21;;;;;;;10.80;3.72;;;36.80;32.80;;;;;;6246260;23;20004;-76
2023/07/13 07:50:47;;;;;;;8.27;3.80;;;36.80;33.00;;;;;;6244253;23;20084;-77
2023/07/13 07:53:12;;;;;;;10.80;3.85;;;36.70;33.00;;;;;;6244211;23;20311;-75
2023/07/13 07:55:38;;;;;;;10.20;3.72;;;36.70;33.40;;;;;;6243596;23;20091;-77
2023/07/13 07:58:05;;;;;;;11.63;3.78;;;36.70;33.60;;;;;;6244163;23;19996;-77
2023/07/13 08:00:32;;;;;;;17.00;3.80;;;36.60;33.70;;;;;;6244268;23;20423;-77
2023/07/13 08:02:59;;;;;;;13.82;3.90;;;36.60;33.90;;;;;;6192315;23;20334;-76
2023/07/13 08:05:25;;;;;;;11.43;3.83;;;36.50;33.70;;;;;;6216879;23;20125;-76
2023/07/13 08:07:51;;;;;;;15.02;4.40;;;36.40;34.00;;;;;;6245883;23;20007;-77
2023/07/13 08:10:17;;;;;;;15.70;4.00;;;36.30;34.20;;;;;;6246078;23;20000;-76
2023/07/13 08:12:42;;;;;;;13.10;3.85;;;36.30;34.50;;;;;;6245470;23;20007;-75
2023/07/13 08:15:14;;;;;;;15.38;4.10;;;36.30;34.70;;;;;;6245865;23;20500;-77
2023/07/13 08:17:40;;;;;;;13.77;4.03;;;36.30;34.80;;;;;;6245918;23;19996;-77
2023/07/13 08:20:06;;;;;;;13.55;4.13;;;36.30;35.00;;;;;;6245766;23;20132;-76
2023/07/13 08:22:32;;;;;;;12.35;3.92;;;36.20;35.50;;;;;;6246080;23;19996;-77
2023/07/13 08:24:58;;;;;;;14.38;4.75;;;36.00;35.40;;;;;;6246116;23;20004;-75
2023/07/13 08:27:25;;;;;;;16.60;8.43;;;35.90;35.70;;;;;;6245761;23;20060;-77
2023/07/13 08:29:52;;;;;;;20.45;8.02;;;35.90;36.10;;;;;;6245961;23;20123;-77
2023/07/13 08:32:19;;;;;;;15.90;5.35;;;35.80;36.20;;;;;;6245553;23;20062;-76
2023/07/13 08:34:45;;;;;;;11.02;4.95;;;35.80;36.50;;;;;;6218678;23;20020;-77
2023/07/13 08:37:10;;;;;;;15.95;6.18;;;35.70;36.50;;;;;;6245912;23;20024;-77
2023/07/13 08:39:36;;;;;;;17.08;4.38;;;35.80;36.80;;;;;;6245771;23;20004;-76
2023/07/13 08:42:27;;;;;;;10.18;4.07;;;35.70;36.90;;;;;;6245538;23;20000;-77
2023/07/13 08:45:00;;;;;;;11.43;4.38;;;35.60;37.20;;;;;;6169152;23;20012;-77
2023/07/13 08:47:28;;;;;;;15.02;4.15;;;35.60;37.90;;;;;;6218785;23;20031;-76
2023/07/13 08:49:56;;;;;;;15.73;4.72;;;35.50;37.70;;;;;;6245577;23;20395;-76
2023/07/13 08:52:40;;;;;;;16.13;4.45;;;35.50;37.90;;;;;;6245905;23;20011;-76
2023/07/13 08:55:18;;;;;;;13.32;3.97;;;35.50;38.10;;;;;;6245950;23;20130;-77
2023/07/13 08:57:48;;;;;;;13.80;4.00;;;35.50;38.80;;;;;;6245705;23;20506;-77
2023/07/13 09:00:15;;;;;;;16.75;5.10;;;35.50;38.40;;;;;;6218850;23;20019;-77
2023/07/13 09:03:15;;;;;;;14.68;4.65;;;35.50;38.70;;;;;;6245501;23;20755;-76
2023/07/13 09:05:42;;;;;;;9.32;3.85;;;35.50;39.10;;;;;;6219137;23;20012;-77
2023/07/13 09:08:32;;;;;;;8.75;3.63;;;35.50;38.60;;;;;;6245572;23;20154;-76
2023/07/13 09:11:18;;;;;;;18.67;4.10;;;35.50;39.40;;;;;;6245727;23;20007;-77
2023/07/13 09:13:51;;;;;;;11.75;4.20;;;35.50;38.90;;;;;;6244834;23;20008;-75
2023/07/13 09:16:17;;;;;;;66.53;10.70;;;35.50;39.10;;;;;;6243246;23;20008;-77
2023/07/13 09:18:47;;;;;;;55.67;8.13;;;35.50;39.10;;;;;;6244401;23;20032;-77
2023/07/13 09:21:25;;;;;;;15.35;4.07;;;35.50;39.30;;;;;;6245259;23;20327;-76
2023/07/13 09:23:56;;;;;;;16.35;4.03;;;35.50;39.50;;;;;;6245338;23;20465;-78
2023/07/13 09:26:23;;;;;;;16.52;4.43;;;35.50;39.80;;;;;;6245428;23;19996;-76
2023/07/13 09:29:11;;;;;;;12.40;4.93;;;35.40;40.30;;;;;;6245518;23;20004;-78
2023/07/13 09:31:43;;;;;;;13.35;4.00;;;35.40;41.00;;;;;;6243970;23;20068;-77
2023/07/13 09:34:14;;;;;;;13.45;3.83;;;35.40;40.90;;;;;;6244527;23;20074;-76
2023/07/13 09:36:40;;;;;;;12.45;4.07;;;35.40;40.10;;;;;;6245865;23;20008;-77
2023/07/13 09:39:23;;;;;;;18.30;4.78;;;35.40;40.10;;;;;;6245110;23;20361;-77
2023/07/13 09:41:49;;;;;;;;;;;35.50;41.00;;;;;;6246071;23;20008;-77
2023/07/13 09:44:17;;;;;;;11.48;4.53;;;35.50;40.20;;;;;;6218493;23;19931;-78
2023/07/13 09:46:52;;;;;;;14.45;4.47;;;35.50;40.10;;;;;;6245350;23;20431;-77
2023/07/13 09:49:18;;;;;;;15.07;4.22;;;35.50;40.20;;;;;;6245077;23;20023;-78
2023/07/13 09:51:44;;;;;;;13.50;4.50;;;35.50;40.30;;;;;;6246175;23;20005;-78
2023/07/13 09:54:24;;;;;;;11.77;4.05;;;35.50;40.30;;;;;;6245756;23;20002;-77
2023/07/13 09:56:58;;;;;;;14.93;4.50;;;35.50;40.40;;;;;;6246132;23;20371;-74
2023/07/13 09:59:30;;;;;;;10.05;3.67;;;35.50;40.30;;;;;;6245807;23;20080;-77
2023/07/13 10:01:56;;;;;;;13.10;4.20;;;35.50;40.40;;;;;;6245875;23;20004;-71
2023/07/13 10:04:33;;;;;;;10.20;3.88;;;35.50;40.50;;;;;;6245506;23;20007;-78
2023/07/13 10:07:12;;;;;;;11.30;4.20;;;35.60;41.40;;;;;;6245658;23;20003;-77
2023/07/13 10:09:38;;;;;;;13.65;4.50;;;35.60;41.50;;;;;;6245611;23;20026;-79
2023/07/13 10:12:15;;;;;;;13.10;4.32;;;35.60;40.80;;;;;;6245092;23;20012;-78
2023/07/13 10:14:42;;;;;;;10.70;4.00;;;35.60;40.80;;;;;;6245368;23;20405;-79
2023/07/13 10:17:13;;;;;;;8.75;4.20;;;35.50;40.80;;;;;;6245467;23;19997;-78
2023/07/13 10:19:45;;;;;;;13.10;3.83;;;35.50;41.10;;;;;;6245217;23;20007;-77
2023/07/13 10:22:29;;;;;;;12.75;4.07;;;35.50;41.20;;;;;;6218916;23;20083;-77
2023/07/13 10:24:56;;;;;;;13.18;4.07;;;35.50;41.50;;;;;;6245247;23;20000;-77
2023/07/13 10:27:35;;;;;;;12.90;4.50;;;35.50;41.60;;;;;;6245356;23;20147;-77
2023/07/13 10:30:16;;;;;;;13.02;4.22;;;35.50;41.60;;;;;;6245225;23;20381;-77
2023/07/13 10:32:43;;;;;;;11.00;4.03;;;35.50;42.40;;;;;;6245181;23;20007;-78
2023/07/13 10:35:15;;;;;;;10.93;4.10;;;35.60;41.70;;;;;;6218291;23;20020;-76
2023/07/13 10:38:07;;;;;;;12.48;4.20;;;35.60;41.70;;;;;;6245225;23;20003;-77
2023/07/13 10:40:57;;;;;;;13.35;4.45;;;35.70;42.60;;;;;;6245223;23;20008;-78
2023/07/13 10:43:45;;;;;;;14.00;4.15;;;35.70;42.10;;;;;;6244993;23;19996;-77
2023/07/13 10:46:15;;;;;;;12.38;4.07;;;35.80;43.10;;;;;;6223232;23;20001;-77
2023/07/13 10:48:43;;;;;;;12.85;4.18;;;35.80;42.60;;;;;;6218020;23;20099;-78
2023/07/13 10:51:11;;;;;;;12.38;4.50;;;35.80;42.70;;;;;;6244615;23;20004;-77
2023/07/13 10:53:42;;;;;;;11.15;4.85;;;35.70;42.90;;;;;;6244699;23;20007;-78
2023/07/13 10:56:13;;;;;;;8.50;3.97;;;35.70;42.90;;;;;;6244593;23;20481;-77
2023/07/13 10:58:43;;;;;;;15.02;4.25;;;35.70;43.00;;;;;;6245215;23;20023;-77
2023/07/13 11:01:17;;;;;;;13.05;4.53;;;35.80;43.90;;;;;;6221412;23;20008;-76
2023/07/13 11:03:50;;;;;;;10.23;4.22;;;35.70;44.00;;;;;;6222293;23;20083;-77
2023/07/13 11:06:24;;;;;;;15.82;4.63;;;35.70;43.40;;;;;;6217968;23;20008;-76
2023/07/13 11:08:52;;;;;;;11.40;4.30;;;35.70;44.00;;;;;;6245190;23;20330;-79
2023/07/13 11:11:24;;;;;;;13.23;4.38;;;35.70;43.50;;;;;;6245245;23;20000;-77
2023/07/13 11:13:49;;;;;;;12.20;4.07;;;35.70;43.80;;;;;;6245153;23;20032;-79
2023/07/13 11:16:18;;;;;;;12.45;4.45;;;35.70;43.70;;;;;;6244507;23;20338;-79
2023/07/13 11:18:51;;;;;;;9.35;4.30;;;35.80;43.90;;;;;;6244837;23;20002;-79
2023/07/13 11:21:27;;;;;;;16.02;4.22;;;35.80;44.00;;;;;;6244949;23;20370;-77
2023/07/13 11:24:01;;;;;;;12.18;4.13;;;35.80;43.90;;;;;;6244624;23;20083;-78
2023/07/13 11:26:49;;;;;;;10.82;4.45;;;35.80;43.80;;;;;;6244866;23;20523;-78
2023/07/13 11:29:30;;;;;;;16.00;6.53;;;35.90;44.60;;;;;;6245514;23;20004;-79
2023/07/13 11:31:58;;;;;;;14.38;6.50;;;35.90;44.80;;;;;;6244779;23;20023;-79
2023/07/13 11:34:34;;;;;;;13.15;4.15;;;36.00;44.10;;;;;;6244873;23;20038;-79
2023/07/13 11:37:01;;;;;;;14.23;4.65;;;36.10;43.90;;;;;;6245257;23;20061;-79
2023/07/13 11:39:36;;;;;;;9.90;3.88;;;36.00;43.70;;;;;;6245250;23;20430;-79
2023/07/13 11:42:13;;;;;;;11.60;4.40;;;36.10;43.80;;;;;;6244586;23;20001;-77
2023/07/13 11:44:44;;;;;;;12.07;4.50;;;36.10;43.80;;;;;;6244641;23;20071;-78
2023/07/13 11:47:20;;;;;;;13.25;4.50;;;36.20;43.70;;;;;;6245024;23;20015;-79
2023/07/13 11:49:49;;;;;;;10.32;4.13;;;36.20;44.00;;;;;;6245142;23;20001;-79
2023/07/13 11:52:21;;;;;;;12.55;4.78;;;36.20;44.20;;;;;;6244979;23;20004;-79
2023/07/13 11:54:57;;;;;;;12.03;4.30;;;36.10;44.30;;;;;;6244966;23;20008;-78
2023/07/13 11:57:33;;;;;;;13.38;4.35;;;36.20;44.20;;;;;;6244943;23;20008;-79
2023/07/13 12:00:10;;;;;;;14.32;4.95;;;36.20;45.10;;;;;;6245189;23;20012;-77
2023/07/13 12:02:41;;;;;;;9.95;4.68;;;36.20;45.10;;;;;;6245069;23;20000;-79
2023/07/13 12:05:12;;;;;;;12.88;4.28;;;36.20;44.70;;;;;;6244914;23;20095;-77
2023/07/13 12:07:38;;;;;;;11.23;4.63;;;36.20;44.60;;;;;;6246496;23;20004;-78
2023/07/13 12:10:26;;;;;;;12.02;4.55;;;36.20;44.40;;;;;;6245041;23;20007;-79
2023/07/13 12:12:57;;;;;;;16.95;4.90;;;36.30;44.90;;;;;;6244744;23;20015;-78
2023/07/13 12:15:30;;;;;;;14.95;4.28;;;36.20;45.00;;;;;;6244751;23;20043;-77
2023/07/13 12:17:56;;;;;;;15.38;5.07;;;36.20;44.90;;;;;;6244585;23;19997;-79
2023/07/13 12:20:26;;;;;;;17.48;5.57;;;36.10;45.00;;;;;;6245701;23;20004;-78
2023/07/13 12:22:53;;;;;;;12.57;4.57;;;36.10;45.70;;;;;;6245430;23;20004;-78
2023/07/13 12:25:20;;;;;;;9.88;4.07;;;36.00;45.20;;;;;;6218267;23;20061;-78
2023/07/13 12:27:50;;;;;;;8.98;4.40;;;36.00;45.30;;;;;;6244778;23;20004;-79
2023/07/13 12:30:28;;;;;;;13.30;4.18;;;35.90;45.90;;;;;;6244522;23;20027;-78
2023/07/13 12:33:00;;;;;;;12.88;4.40;;;35.90;46.00;;;;;;6244784;23;20004;-80
2023/07/13 12:35:29;;;;;;;10.93;4.00;;;36.00;46.10;;;;;;6244725;23;20389;-80
2023/07/13 12:37:58;;;;;;;11.55;4.25;;;35.90;46.40;;;;;;6244750;23;20365;-80
2023/07/13 12:40:32;;;;;;;8.43;4.45;;;35.80;46.40;;;;;;6244904;23;20011;-78
2023/07/13 12:42:58;;;;;;;15.02;4.15;;;35.80;46.70;;;;;;6244921;23;20007;-78
2023/07/13 12:45:28;;;;;;;9.88;4.60;;;35.70;46.90;;;;;;6244858;23;20023;-78
2023/07/13 12:48:09;;;;;;;12.35;4.65;;;35.70;47.10;;;;;;6244587;23;20004;-79